sensor_id;sensor_type;location;lat;lon;timestamp;P1;durP1;ratioP1;P2;durP2;ratioP2
6928;SDS011;3504;52.616;13.238;2022-11-20T00:02:16;25.13;;;13.93;;
6928;SDS011;3504;52.616;13.238;2022-11-20T00:07:17;22.93;;;14.90;;
6928;SDS011;3504;52.616;13.238;2022-11-20T00:12:19;23.33;;;13.87;;
6928;SDS011;3504;52.616;13.238;2022-11-20T00:17:19;21.37;;;12.80;;
6928;SDS011;3504;52.616;13.238;2022-11-20T00:22:21;23.97;;;13.67;;
6928;SDS011;3504;52.616;13.238;2022-11-20T00:27:21;20.90;;;13.30;;
6928;SDS011;3504;52.616;13.238;2022-11-20T00:32:23;24.10;;;14.37;;
6928;SDS011;3504;52.616;13.238;2022-11-20T00:37:23;19.40;;;13.60;;
6928;SDS011;3504;52.616;13.238;2022-11-20T00:42:25;20.63;;;12.93;;
6928;SDS011;3504;52.616;13.238;2022-11-20T00:47:25;21.80;;;13.83;;
6928;SDS011;3504;52.616;13.238;2022-11-20T00:52:27;20.53;;;12.67;;
6928;SDS011;3504;52.616;13.238;2022-11-20T00:57:28;19.53;;;12.67;;
6928;SDS011;3504;52.616;13.238;2022-11-20T01:02:29;23.00;;;13.67;;
6928;SDS011;3504;52.616;13.238;2022-11-20T01:07:30;19.57;;;13.17;;
6928;SDS011;3504;52.616;13.238;2022-11-20T01:12:33;21.97;;;13.83;;
6928;SDS011;3504;52.616;13.238;2022-11-20T01:17:33;21.20;;;12.93;;
6928;SDS011;3504;52.616;13.238;2022-11-20T01:22:35;21.37;;;13.27;;
6928;SDS011;3504;52.616;13.238;2022-11-20T01:27:35;20.63;;;12.53;;
6928;SDS011;3504;52.616;13.238;2022-11-20T01:32:37;21.80;;;13.97;;
6928;SDS011;3504;52.616;13.238;2022-11-20T01:37:38;22.17;;;13.20;;
6928;SDS011;3504;52.616;13.238;2022-11-20T01:42:44;23.13;;;13.90;;
6928;SDS011;3504;52.616;13.238;2022-11-20T01:48:10;20.80;;;13.63;;
6928;SDS011;3504;52.616;13.238;2022-11-20T01:53:13;22.57;;;14.37;;
6928;SDS011;3504;52.616;13.238;2022-11-20T01:58:16;22.80;;;13.63;;
6928;SDS011;3504;52.616;13.238;2022-11-20T02:03:25;23.03;;;15.17;;
6928;SDS011;3504;52.616;13.238;2022-11-20T02:08:26;21.70;;;12.67;;
6928;SDS011;3504;52.616;13.238;2022-11-20T02:13:29;19.27;;;12.20;;
6928;SDS011;3504;52.616;13.238;2022-11-20T02:18:45;24.10;;;14.27;;
6928;SDS011;3504;52.616;13.238;2022-11-20T02:29:24;22.27;;;14.03;;
6928;SDS011;3504;52.616;13.238;2022-11-20T02:34:39;21.73;;;13.33;;
6928;SDS011;3504;52.616;13.238;2022-11-20T02:39:39;22.23;;;14.03;;
6928;SDS011;3504;52.616;13.238;2022-11-20T02:44:42;24.13;;;14.80;;
6928;SDS011;3504;52.616;13.238;2022-11-20T02:49:42;22.50;;;13.73;;
6928;SDS011;3504;52.616;13.238;2022-11-20T02:54:44;24.00;;;15.03;;
6928;SDS011;3504;52.616;13.238;2022-11-20T02:59:45;23.33;;;15.00;;
6928;SDS011;3504;52.616;13.238;2022-11-20T03:04:46;26.57;;;15.13;;
6928;SDS011;3504;52.616;13.238;2022-11-20T03:09:47;23.73;;;15.07;;
6928;SDS011;3504;52.616;13.238;2022-11-20T03:14:48;24.87;;;16.17;;
6928;SDS011;3504;52.616;13.238;2022-11-20T03:19:49;26.10;;;15.47;;
6928;SDS011;3504;52.616;13.238;2022-11-20T03:24:51;24.73;;;15.63;;
6928;SDS011;3504;52.616;13.238;2022-11-20T03:29:51;25.73;;;16.20;;
6928;SDS011;3504;52.616;13.238;2022-11-20T03:34:53;23.93;;;14.60;;
6928;SDS011;3504;52.616;13.238;2022-11-20T03:39:54;23.93;;;15.13;;
6928;SDS011;3504;52.616;13.238;2022-11-20T03:44:55;24.40;;;15.73;;
6928;SDS011;3504;52.616;13.238;2022-11-20T03:49:56;26.50;;;15.80;;
6928;SDS011;3504;52.616;13.238;2022-11-20T03:54:57;25.83;;;16.67;;
6928;SDS011;3504;52.616;13.238;2022-11-20T03:59:58;25.33;;;14.70;;
6928;SDS011;3504;52.616;13.238;2022-11-20T04:05:00;29.00;;;16.50;;
6928;SDS011;3504;52.616;13.238;2022-11-20T04:10:00;29.67;;;16.30;;
6928;SDS011;3504;52.616;13.238;2022-11-20T04:15:02;27.83;;;15.73;;
6928;SDS011;3504;52.616;13.238;2022-11-20T04:20:03;26.00;;;15.87;;
6928;SDS011;3504;52.616;13.238;2022-11-20T04:25:05;23.53;;;15.77;;
6928;SDS011;3504;52.616;13.238;2022-11-20T04:30:06;26.70;;;16.03;;
6928;SDS011;3504;52.616;13.238;2022-11-20T04:35:08;28.17;;;16.70;;
6928;SDS011;3504;52.616;13.238;2022-11-20T04:40:09;25.53;;;15.93;;
6928;SDS011;3504;52.616;13.238;2022-11-20T04:45:11;25.47;;;15.43;;
6928;SDS011;3504;52.616;13.238;2022-11-20T04:50:11;27.90;;;15.90;;
6928;SDS011;3504;52.616;13.238;2022-11-20T04:55:13;27.30;;;16.63;;
6928;SDS011;3504;52.616;13.238;2022-11-20T05:00:14;28.33;;;17.13;;
6928;SDS011;3504;52.616;13.238;2022-11-20T05:05:16;27.47;;;17.43;;
6928;SDS011;3504;52.616;13.238;2022-11-20T05:10:16;30.93;;;17.70;;
6928;SDS011;3504;52.616;13.238;2022-11-20T05:15:18;29.30;;;16.83;;
6928;SDS011;3504;52.616;13.238;2022-11-20T05:20:19;27.47;;;16.80;;
6928;SDS011;3504;52.616;13.238;2022-11-20T05:25:22;25.13;;;16.30;;
6928;SDS011;3504;52.616;13.238;2022-11-20T05:30:22;29.30;;;17.80;;
6928;SDS011;3504;52.616;13.238;2022-11-20T05:35:24;26.23;;;16.23;;
6928;SDS011;3504;52.616;13.238;2022-11-20T05:40:24;31.40;;;17.67;;
6928;SDS011;3504;52.616;13.238;2022-11-20T05:45:26;31.57;;;18.37;;
6928;SDS011;3504;52.616;13.238;2022-11-20T05:50:27;29.23;;;18.30;;
6928;SDS011;3504;52.616;13.238;2022-11-20T05:55:29;30.43;;;17.80;;
6928;SDS011;3504;52.616;13.238;2022-11-20T06:00:29;29.10;;;17.37;;
6928;SDS011;3504;52.616;13.238;2022-11-20T06:05:33;30.93;;;17.67;;
6928;SDS011;3504;52.616;13.238;2022-11-20T06:10:33;29.13;;;16.60;;
6928;SDS011;3504;52.616;13.238;2022-11-20T06:15:35;27.63;;;17.00;;
6928;SDS011;3504;52.616;13.238;2022-11-20T06:20:35;28.97;;;17.13;;
6928;SDS011;3504;52.616;13.238;2022-11-20T06:25:41;28.60;;;17.20;;
6928;SDS011;3504;52.616;13.238;2022-11-20T06:30:46;29.67;;;18.10;;
6928;SDS011;3504;52.616;13.238;2022-11-20T06:35:47;31.00;;;18.43;;
6928;SDS011;3504;52.616;13.238;2022-11-20T06:40:48;29.53;;;17.50;;
6928;SDS011;3504;52.616;13.238;2022-11-20T06:45:53;28.33;;;16.60;;
6928;SDS011;3504;52.616;13.238;2022-11-20T06:50:54;27.43;;;17.83;;
6928;SDS011;3504;52.616;13.238;2022-11-20T06:55:56;28.90;;;17.30;;
6928;SDS011;3504;52.616;13.238;2022-11-20T07:01:00;27.47;;;17.07;;
6928;SDS011;3504;52.616;13.238;2022-11-20T07:06:04;28.03;;;17.37;;
6928;SDS011;3504;52.616;13.238;2022-11-20T07:11:06;29.73;;;16.97;;
6928;SDS011;3504;52.616;13.238;2022-11-20T07:16:08;29.40;;;18.20;;
6928;SDS011;3504;52.616;13.238;2022-11-20T07:21:09;31.73;;;18.23;;
6928;SDS011;3504;52.616;13.238;2022-11-20T07:26:11;29.80;;;17.83;;
6928;SDS011;3504;52.616;13.238;2022-11-20T07:31:12;28.57;;;16.67;;
6928;SDS011;3504;52.616;13.238;2022-11-20T07:36:14;26.93;;;16.70;;
6928;SDS011;3504;52.616;13.238;2022-11-20T07:41:15;30.10;;;18.43;;
6928;SDS011;3504;52.616;13.238;2022-11-20T07:46:17;31.30;;;18.60;;
6928;SDS011;3504;52.616;13.238;2022-11-20T07:51:17;27.70;;;17.10;;
6928;SDS011;3504;52.616;13.238;2022-11-20T07:56:19;31.23;;;18.23;;
6928;SDS011;3504;52.616;13.238;2022-11-20T08:01:19;29.83;;;18.17;;
6928;SDS011;3504;52.616;13.238;2022-11-20T08:06:21;30.03;;;17.70;;
6928;SDS011;3504;52.616;13.238;2022-11-20T08:11:22;28.10;;;17.17;;
6928;SDS011;3504;52.616;13.238;2022-11-20T08:16:46;33.53;;;18.83;;
6928;SDS011;3504;52.616;13.238;2022-11-20T08:21:49;28.63;;;16.90;;
6928;SDS011;3504;52.616;13.238;2022-11-20T08:26:50;30.50;;;18.13;;
6928;SDS011;3504;52.616;13.238;2022-11-20T08:31:51;28.90;;;18.10;;
6928;SDS011;3504;52.616;13.238;2022-11-20T08:36:53;29.77;;;17.60;;
6928;SDS011;3504;52.616;13.238;2022-11-20T08:41:53;29.33;;;17.93;;
6928;SDS011;3504;52.616;13.238;2022-11-20T08:46:55;28.73;;;18.47;;
6928;SDS011;3504;52.616;13.238;2022-11-20T08:51:56;29.80;;;17.90;;
6928;SDS011;3504;52.616;13.238;2022-11-20T08:56:58;27.93;;;16.17;;
6928;SDS011;3504;52.616;13.238;2022-11-20T09:01:59;30.37;;;18.53;;
6928;SDS011;3504;52.616;13.238;2022-11-20T09:07:00;28.73;;;17.83;;
6928;SDS011;3504;52.616;13.238;2022-11-20T09:12:01;26.23;;;16.57;;
6928;SDS011;3504;52.616;13.238;2022-11-20T09:17:03;34.00;;;18.67;;
6928;SDS011;3504;52.616;13.238;2022-11-20T09:22:03;28.03;;;17.43;;
6928;SDS011;3504;52.616;13.238;2022-11-20T09:27:05;26.80;;;16.53;;
6928;SDS011;3504;52.616;13.238;2022-11-20T09:32:06;29.50;;;17.53;;
6928;SDS011;3504;52.616;13.238;2022-11-20T09:37:08;29.67;;;17.20;;
6928;SDS011;3504;52.616;13.238;2022-11-20T09:48:14;29.97;;;16.40;;
6928;SDS011;3504;52.616;13.238;2022-11-20T09:58:54;28.80;;;15.77;;
6928;SDS011;3504;52.616;13.238;2022-11-20T10:04:20;29.50;;;17.43;;
6928;SDS011;3504;52.616;13.238;2022-11-20T10:09:27;28.10;;;17.27;;
6928;SDS011;3504;52.616;13.238;2022-11-20T10:14:38;29.13;;;17.50;;
6928;SDS011;3504;52.616;13.238;2022-11-20T10:25:23;28.23;;;16.60;;
6928;SDS011;3504;52.616;13.238;2022-11-20T10:30:36;29.60;;;16.67;;
6928;SDS011;3504;52.616;13.238;2022-11-20T10:35:42;49.40;;;24.67;;
6928;SDS011;3504;52.616;13.238;2022-11-20T10:40:54;50.33;;;24.87;;
6928;SDS011;3504;52.616;13.238;2022-11-20T10:46:20;28.30;;;17.37;;
6928;SDS011;3504;52.616;13.238;2022-11-20T10:57:25;27.63;;;15.73;;
6928;SDS011;3504;52.616;13.238;2022-11-20T11:02:50;27.37;;;15.20;;
6928;SDS011;3504;52.616;13.238;2022-11-20T11:07:54;25.57;;;15.03;;
6928;SDS011;3504;52.616;13.238;2022-11-20T11:12:57;23.57;;;14.47;;
6928;SDS011;3504;52.616;13.238;2022-11-20T11:17:58;24.57;;;15.17;;
6928;SDS011;3504;52.616;13.238;2022-11-20T11:23:00;20.70;;;14.87;;
6928;SDS011;3504;52.616;13.238;2022-11-20T11:28:02;27.03;;;16.03;;
6928;SDS011;3504;52.616;13.238;2022-11-20T11:33:06;24.07;;;15.37;;
6928;SDS011;3504;52.616;13.238;2022-11-20T11:38:12;24.03;;;14.53;;
6928;SDS011;3504;52.616;13.238;2022-11-20T11:43:21;24.17;;;15.50;;
6928;SDS011;3504;52.616;13.238;2022-11-20T11:48:54;24.23;;;15.27;;
6928;SDS011;3504;52.616;13.238;2022-11-20T11:53:58;23.77;;;16.23;;
6928;SDS011;3504;52.616;13.238;2022-11-20T11:59:00;26.97;;;15.80;;
6928;SDS011;3504;52.616;13.238;2022-11-20T12:09:41;21.37;;;13.40;;
6928;SDS011;3504;52.616;13.238;2022-11-20T12:14:49;23.50;;;13.93;;
6928;SDS011;3504;52.616;13.238;2022-11-20T12:19:52;23.10;;;14.27;;
6928;SDS011;3504;52.616;13.238;2022-11-20T12:25:00;21.00;;;13.00;;
6928;SDS011;3504;52.616;13.238;2022-11-20T12:30:15;22.40;;;13.10;;
6928;SDS011;3504;52.616;13.238;2022-11-20T12:41:16;19.30;;;11.50;;
6928;SDS011;3504;52.616;13.238;2022-11-20T12:46:53;24.70;;;13.90;;
6928;SDS011;3504;52.616;13.238;2022-11-20T12:57:50;18.93;;;12.97;;
6928;SDS011;3504;52.616;13.238;2022-11-20T13:03:13;21.03;;;13.43;;
6928;SDS011;3504;52.616;13.238;2022-11-20T13:43:00;19.90;;;13.53;;
6928;SDS011;3504;52.616;13.238;2022-11-20T13:48:21;19.77;;;13.03;;
6928;SDS011;3504;52.616;13.238;2022-11-20T13:59:24;21.30;;;14.20;;
6928;SDS011;3504;52.616;13.238;2022-11-20T14:04:54;24.80;;;14.77;;
6928;SDS011;3504;52.616;13.238;2022-11-20T14:09:58;21.00;;;13.70;;
6928;SDS011;3504;52.616;13.238;2022-11-20T14:14:59;19.73;;;13.80;;
6928;SDS011;3504;52.616;13.238;2022-11-20T14:20:01;24.07;;;14.97;;
6928;SDS011;3504;52.616;13.238;2022-11-20T14:30:12;24.90;;;15.43;;
6928;SDS011;3504;52.616;13.238;2022-11-20T14:35:35;22.77;;;14.60;;
6928;SDS011;3504;52.616;13.238;2022-11-20T14:40:43;20.13;;;13.07;;
6928;SDS011;3504;52.616;13.238;2022-11-20T14:45:48;23.13;;;13.67;;
6928;SDS011;3504;52.616;13.238;2022-11-20T14:51:05;25.07;;;13.77;;
6928;SDS011;3504;52.616;13.238;2022-11-20T14:56:08;24.27;;;15.40;;
6928;SDS011;3504;52.616;13.238;2022-11-20T15:01:11;20.80;;;14.40;;
6928;SDS011;3504;52.616;13.238;2022-11-20T15:06:13;20.87;;;13.80;;
6928;SDS011;3504;52.616;13.238;2022-11-20T15:11:17;20.63;;;13.93;;
6928;SDS011;3504;52.616;13.238;2022-11-20T15:16:21;20.17;;;13.30;;
6928;SDS011;3504;52.616;13.238;2022-11-20T15:21:24;25.93;;;14.70;;
6928;SDS011;3504;52.616;13.238;2022-11-20T15:26:25;28.50;;;16.97;;
6928;SDS011;3504;52.616;13.238;2022-11-20T15:31:27;22.87;;;15.40;;
6928;SDS011;3504;52.616;13.238;2022-11-20T15:36:28;24.13;;;15.00;;
6928;SDS011;3504;52.616;13.238;2022-11-20T15:41:28;26.07;;;16.13;;
6928;SDS011;3504;52.616;13.238;2022-11-20T15:46:30;22.77;;;14.70;;
6928;SDS011;3504;52.616;13.238;2022-11-20T15:51:38;25.40;;;15.70;;
6928;SDS011;3504;52.616;13.238;2022-11-20T15:56:48;25.30;;;16.03;;
6928;SDS011;3504;52.616;13.238;2022-11-20T16:01:52;24.00;;;15.43;;
6928;SDS011;3504;52.616;13.238;2022-11-20T16:06:52;25.00;;;14.30;;
6928;SDS011;3504;52.616;13.238;2022-11-20T16:11:53;22.43;;;14.23;;
6928;SDS011;3504;52.616;13.238;2022-11-20T16:16:54;22.47;;;14.67;;
6928;SDS011;3504;52.616;13.238;2022-11-20T16:21:54;19.20;;;13.13;;
6928;SDS011;3504;52.616;13.238;2022-11-20T16:26:57;21.27;;;14.07;;
6928;SDS011;3504;52.616;13.238;2022-11-20T16:31:57;22.50;;;14.63;;
6928;SDS011;3504;52.616;13.238;2022-11-20T16:36:58;22.47;;;14.23;;
6928;SDS011;3504;52.616;13.238;2022-11-20T16:41:58;22.97;;;15.13;;
6928;SDS011;3504;52.616;13.238;2022-11-20T16:47:03;20.10;;;13.83;;
6928;SDS011;3504;52.616;13.238;2022-11-20T16:52:03;19.53;;;13.17;;
6928;SDS011;3504;52.616;13.238;2022-11-20T16:57:04;24.67;;;14.27;;
6928;SDS011;3504;52.616;13.238;2022-11-20T17:02:05;21.50;;;12.67;;
6928;SDS011;3504;52.616;13.238;2022-11-20T17:07:06;18.47;;;12.10;;
6928;SDS011;3504;52.616;13.238;2022-11-20T17:12:06;20.17;;;13.40;;
6928;SDS011;3504;52.616;13.238;2022-11-20T17:17:07;20.60;;;13.80;;
6928;SDS011;3504;52.616;13.238;2022-11-20T17:22:07;20.60;;;13.60;;
6928;SDS011;3504;52.616;13.238;2022-11-20T17:27:08;18.73;;;11.93;;
6928;SDS011;3504;52.616;13.238;2022-11-20T17:32:09;19.17;;;12.90;;
6928;SDS011;3504;52.616;13.238;2022-11-20T17:37:10;20.50;;;12.73;;
6928;SDS011;3504;52.616;13.238;2022-11-20T17:42:10;22.03;;;13.67;;
6928;SDS011;3504;52.616;13.238;2022-11-20T17:47:26;20.63;;;13.20;;
6928;SDS011;3504;52.616;13.238;2022-11-20T17:52:26;19.83;;;13.50;;
6928;SDS011;3504;52.616;13.238;2022-11-20T17:57:27;21.23;;;12.97;;
6928;SDS011;3504;52.616;13.238;2022-11-20T18:02:50;21.67;;;13.40;;
6928;SDS011;3504;52.616;13.238;2022-11-20T18:07:51;22.47;;;14.03;;
6928;SDS011;3504;52.616;13.238;2022-11-20T18:12:55;22.87;;;13.53;;
6928;SDS011;3504;52.616;13.238;2022-11-20T18:17:56;22.83;;;14.37;;
6928;SDS011;3504;52.616;13.238;2022-11-20T18:22:57;38.07;;;24.37;;
6928;SDS011;3504;52.616;13.238;2022-11-20T18:27:57;27.13;;;17.50;;
6928;SDS011;3504;52.616;13.238;2022-11-20T18:32:58;28.30;;;17.80;;
6928;SDS011;3504;52.616;13.238;2022-11-20T18:37:58;24.13;;;16.13;;
6928;SDS011;3504;52.616;13.238;2022-11-20T18:42:59;32.80;;;22.13;;
6928;SDS011;3504;52.616;13.238;2022-11-20T18:48:18;26.10;;;17.50;;
6928;SDS011;3504;52.616;13.238;2022-11-20T18:53:18;23.70;;;15.87;;
6928;SDS011;3504;52.616;13.238;2022-11-20T18:58:19;20.07;;;13.97;;
6928;SDS011;3504;52.616;13.238;2022-11-20T19:03:19;25.23;;;14.80;;
6928;SDS011;3504;52.616;13.238;2022-11-20T19:08:20;24.30;;;16.07;;
6928;SDS011;3504;52.616;13.238;2022-11-20T19:13:20;20.70;;;13.73;;
6928;SDS011;3504;52.616;13.238;2022-11-20T19:20:21;22.73;;;14.43;;
6928;SDS011;3504;52.616;13.238;2022-11-20T19:25:21;23.87;;;14.33;;
6928;SDS011;3504;52.616;13.238;2022-11-20T19:30:22;21.27;;;14.03;;
6928;SDS011;3504;52.616;13.238;2022-11-20T19:35:23;19.47;;;13.77;;
6928;SDS011;3504;52.616;13.238;2022-11-20T19:40:24;19.47;;;13.03;;
6928;SDS011;3504;52.616;13.238;2022-11-20T19:45:24;20.33;;;13.20;;
6928;SDS011;3504;52.616;13.238;2022-11-20T19:50:25;22.37;;;13.57;;
6928;SDS011;3504;52.616;13.238;2022-11-20T19:55:25;19.30;;;13.13;;
6928;SDS011;3504;52.616;13.238;2022-11-20T20:00:26;23.13;;;14.03;;
6928;SDS011;3504;52.616;13.238;2022-11-20T20:05:30;23.23;;;13.63;;
6928;SDS011;3504;52.616;13.238;2022-11-20T20:10:32;23.10;;;13.93;;
6928;SDS011;3504;52.616;13.238;2022-11-20T20:15:33;21.27;;;13.37;;
6928;SDS011;3504;52.616;13.238;2022-11-20T20:20:38;21.00;;;13.23;;
6928;SDS011;3504;52.616;13.238;2022-11-20T20:25:38;22.70;;;13.97;;
6928;SDS011;3504;52.616;13.238;2022-11-20T20:30:39;23.70;;;14.60;;
6928;SDS011;3504;52.616;13.238;2022-11-20T20:35:41;23.47;;;15.40;;
6928;SDS011;3504;52.616;13.238;2022-11-20T20:40:45;26.10;;;16.13;;
6928;SDS011;3504;52.616;13.238;2022-11-20T20:45:50;27.47;;;14.87;;
6928;SDS011;3504;52.616;13.238;2022-11-20T20:50:58;22.30;;;14.20;;
6928;SDS011;3504;52.616;13.238;2022-11-20T20:56:01;22.47;;;13.87;;
6928;SDS011;3504;52.616;13.238;2022-11-20T21:01:06;19.97;;;12.77;;
6928;SDS011;3504;52.616;13.238;2022-11-20T21:06:10;21.17;;;13.57;;
6928;SDS011;3504;52.616;13.238;2022-11-20T21:11:12;19.70;;;12.60;;
6928;SDS011;3504;52.616;13.238;2022-11-20T21:16:15;20.50;;;13.80;;
6928;SDS011;3504;52.616;13.238;2022-11-20T21:21:17;26.77;;;14.50;;
6928;SDS011;3504;52.616;13.238;2022-11-20T21:26:41;25.63;;;16.13;;
6928;SDS011;3504;52.616;13.238;2022-11-20T21:31:41;27.80;;;17.00;;
6928;SDS011;3504;52.616;13.238;2022-11-20T21:36:42;27.73;;;16.10;;
6928;SDS011;3504;52.616;13.238;2022-11-20T21:41:43;26.17;;;16.90;;
6928;SDS011;3504;52.616;13.238;2022-11-20T21:46:44;26.43;;;17.70;;
6928;SDS011;3504;52.616;13.238;2022-11-20T21:51:45;29.73;;;16.27;;
6928;SDS011;3504;52.616;13.238;2022-11-20T21:56:46;26.40;;;15.77;;
6928;SDS011;3504;52.616;13.238;2022-11-20T22:01:46;27.73;;;15.40;;
6928;SDS011;3504;52.616;13.238;2022-11-20T22:06:47;27.47;;;15.97;;
6928;SDS011;3504;52.616;13.238;2022-11-20T22:11:50;27.20;;;16.63;;
6928;SDS011;3504;52.616;13.238;2022-11-20T22:16:51;28.03;;;16.73;;
6928;SDS011;3504;52.616;13.238;2022-11-20T22:21:52;26.97;;;16.47;;
6928;SDS011;3504;52.616;13.238;2022-11-20T22:26:53;26.07;;;16.87;;
6928;SDS011;3504;52.616;13.238;2022-11-20T22:31:53;26.87;;;16.27;;
6928;SDS011;3504;52.616;13.238;2022-11-20T22:36:54;23.50;;;15.53;;
6928;SDS011;3504;52.616;13.238;2022-11-20T22:41:54;24.63;;;14.87;;
6928;SDS011;3504;52.616;13.238;2022-11-20T22:46:55;24.43;;;15.00;;
6928;SDS011;3504;52.616;13.238;2022-11-20T22:51:55;24.53;;;15.37;;
6928;SDS011;3504;52.616;13.238;2022-11-20T22:56:56;26.60;;;15.90;;
6928;SDS011;3504;52.616;13.238;2022-11-20T23:01:56;26.50;;;15.63;;
6928;SDS011;3504;52.616;13.238;2022-11-20T23:06:57;23.00;;;13.90;;
6928;SDS011;3504;52.616;13.238;2022-11-20T23:11:57;23.17;;;14.70;;
6928;SDS011;3504;52.616;13.238;2022-11-20T23:16:58;24.83;;;14.63;;
6928;SDS011;3504;52.616;13.238;2022-11-20T23:21:58;24.33;;;15.87;;
6928;SDS011;3504;52.616;13.238;2022-11-20T23:26:59;23.47;;;15.27;;
6928;SDS011;3504;52.616;13.238;2022-11-20T23:31:59;24.33;;;15.40;;
6928;SDS011;3504;52.616;13.238;2022-11-20T23:37:00;27.90;;;15.90;;
6928;SDS011;3504;52.616;13.238;2022-11-20T23:42:00;25.13;;;15.30;;
6928;SDS011;3504;52.616;13.238;2022-11-20T23:47:01;22.93;;;14.37;;
6928;SDS011;3504;52.616;13.238;2022-11-20T23:52:01;24.93;;;14.60;;
6928;SDS011;3504;52.616;13.238;2022-11-20T23:57:02;26.77;;;14.97;;
